createdAt,value
2022-10-05T00:01:24.981Z,97835.38
2022-10-05T00:03:59.086Z,97825.34
2022-10-05T00:06:29.824Z,97817.75
2022-10-05T00:08:56.677Z,97799.78
2022-10-05T00:11:23.420Z,97720.50
2022-10-05T00:13:50.136Z,97769.56
2022-10-05T00:16:20.562Z,97831.16
2022-10-05T00:18:53.207Z,97744.25
2022-10-05T00:21:25.427Z,97832.50
2022-10-05T00:23:55.543Z,97816.69
2022-10-05T00:26:24.900Z,97832.19
2022-10-05T00:28:52.982Z,97673.88
2022-10-05T00:31:21.226Z,97843.81
2022-10-05T00:33:48.875Z,97844.16
2022-10-05T00:36:15.730Z,97767.72
2022-10-05T00:38:42.930Z,97853.09
2022-10-05T00:41:34.617Z,97856.66
2022-10-05T00:44:03.763Z,97847.88
2022-10-05T00:46:42.512Z,97855.16
2022-10-05T00:49:21.355Z,97849.75
2022-10-05T00:52:00.809Z,97828.25
2022-10-05T00:55:00.323Z,97744.97
2022-10-05T00:58:04.206Z,97848.06
2022-10-05T01:00:36.728Z,97859.19
2022-10-05T01:03:12.458Z,97845.88
2022-10-05T01:05:59.667Z,97828.94
2022-10-05T01:08:38.419Z,97854.47
2022-10-05T01:11:19.400Z,97862.78
2022-10-05T01:14:13.020Z,97853.44
2022-10-05T01:17:01.478Z,97871.38
2022-10-05T01:19:28.095Z,97868.28
2022-10-05T01:22:05.734Z,97742.97
2022-10-05T01:24:50.019Z,97859.97
2022-10-05T01:27:31.715Z,97850.56
2022-10-05T01:30:12.205Z,97833.59
2022-10-05T01:32:41.823Z,97855.09
2022-10-05T01:35:38.932Z,97863.72
2022-10-05T01:38:23.263Z,97861.75
2022-10-05T01:41:01.517Z,97813.41
2022-10-05T01:43:28.007Z,97880.75
2022-10-05T01:46:01.164Z,97887.72
2022-10-05T01:48:39.262Z,97860.03
2022-10-05T01:51:20.781Z,97881.72
2022-10-05T01:53:52.696Z,97814.38
2022-10-05T01:56:36.994Z,97901.63
2022-10-05T01:59:18.926Z,97884.31
2022-10-05T02:01:59.174Z,97894.38
2022-10-05T02:05:01.099Z,97841.91
2022-10-05T02:07:30.109Z,97794.03
2022-10-05T02:10:08.882Z,97903.59
2022-10-05T02:12:38.055Z,97895.97
2022-10-05T02:15:17.233Z,97898.91
2022-10-05T02:17:48.903Z,97856.16
2022-10-05T02:20:23.673Z,97895.66
2022-10-05T02:22:54.268Z,97890.47
2022-10-05T02:25:23.750Z,97904.41
2022-10-05T02:27:56.841Z,97926.28
2022-10-05T02:30:23.563Z,97919.66
2022-10-05T02:33:05.719Z,97915.13
2022-10-05T02:35:32.428Z,97897.09
2022-10-05T02:38:19.496Z,97890.97
2022-10-05T02:41:04.824Z,97912.34
2022-10-05T02:43:34.680Z,97924.47
2022-10-05T02:46:04.374Z,97923.50
2022-10-05T02:48:43.284Z,97924.00
2022-10-05T02:51:28.099Z,97926.75
2022-10-05T02:54:00.536Z,97923.50
2022-10-05T02:56:54.445Z,97930.47
2022-10-05T02:59:24.039Z,97934.81
2022-10-05T03:01:55.838Z,97858.38
2022-10-05T03:04:44.105Z,97922.03
2022-10-05T03:07:32.856Z,97919.16
2022-10-05T03:10:34.170Z,97925.09
2022-10-05T03:13:06.801Z,97933.69
2022-10-05T03:15:42.151Z,97933.03
2022-10-05T03:18:11.384Z,97936.63
2022-10-05T03:21:02.845Z,97940.69
2022-10-05T03:23:48.761Z,97892.38
2022-10-05T03:26:30.276Z,97936.91
2022-10-05T03:29:30.678Z,97945.50
2022-10-05T03:32:11.436Z,97957.41
2022-10-05T03:34:46.518Z,97905.84
2022-10-05T03:37:31.269Z,97889.72
2022-10-05T03:40:07.948Z,97879.22
2022-10-05T03:43:05.587Z,97944.19
2022-10-05T03:46:02.915Z,97947.44
2022-10-05T03:48:35.406Z,97952.97
2022-10-05T03:51:14.778Z,97967.97
2022-10-05T03:53:48.083Z,97965.63
2022-10-05T03:56:18.351Z,97974.84
2022-10-05T03:59:08.170Z,97979.38
2022-10-05T04:02:12.906Z,97974.50
2022-10-05T04:04:57.024Z,97880.28
2022-10-05T04:07:43.667Z,97969.34
2022-10-05T04:10:21.235Z,97972.59
2022-10-05T04:12:56.444Z,97988.97
2022-10-05T04:15:36.381Z,97990.47
2022-10-05T04:18:22.867Z,97977.81
2022-10-05T04:20:53.883Z,97931.53
2022-10-05T04:23:33.217Z,97948.91
2022-10-05T04:26:11.520Z,97997.53
2022-10-05T04:29:01.173Z,97997.91
2022-10-05T04:31:48.830Z,98001.16
2022-10-05T04:34:46.278Z,97999.19
2022-10-05T04:37:22.586Z,98005.31
2022-10-05T04:40:08.050Z,98007.25
2022-10-05T04:42:45.188Z,98003.66
2022-10-05T04:45:38.372Z,97992.78
2022-10-05T04:48:40.310Z,97927.63
2022-10-05T04:51:22.187Z,98008.28
2022-10-05T04:54:02.466Z,98013.16
2022-10-05T04:56:54.768Z,98020.94
2022-10-05T04:59:24.884Z,98013.72
2022-10-05T05:01:51.388Z,98014.59
2022-10-05T05:04:55.265Z,98009.78
2022-10-05T05:07:49.467Z,98017.56
2022-10-05T05:10:32.666Z,98017.75
2022-10-05T05:13:17.439Z,98027.34
2022-10-05T05:15:47.194Z,98039.50
2022-10-05T05:18:41.614Z,98039.50
2022-10-05T05:21:46.696Z,98045.66
2022-10-05T05:24:37.314Z,98049.91
2022-10-05T05:27:24.965Z,98060.44
2022-10-05T05:29:57.680Z,98061.72
2022-10-05T05:32:24.181Z,98064.91
2022-10-05T05:35:06.749Z,98021.78
2022-10-05T05:37:36.472Z,98056.03
2022-10-05T05:40:33.215Z,97992.03
2022-10-05T05:43:13.905Z,97980.00
2022-10-05T05:46:02.797Z,98052.13
2022-10-05T05:48:38.352Z,98066.16
2022-10-05T05:51:15.044Z,98067.78
2022-10-05T05:53:48.044Z,97927.41
2022-10-05T05:56:19.302Z,98064.03
2022-10-05T05:58:57.790Z,98030.19
2022-10-05T06:01:33.665Z,98056.09
2022-10-05T06:04:11.033Z,98068.66
2022-10-05T06:06:42.388Z,98068.63
2022-10-05T06:09:24.814Z,97825.19
2022-10-05T06:11:55.157Z,97985.31
2022-10-05T06:14:43.516Z,98073.84
2022-10-05T06:17:16.283Z,98071.63
2022-10-05T06:19:44.168Z,97829.13
2022-10-05T06:22:22.395Z,98081.66
2022-10-05T06:25:12.235Z,98045.78
2022-10-05T06:28:04.150Z,98070.13
2022-10-05T06:30:40.653Z,98073.34
2022-10-05T06:33:44.974Z,98089.47
2022-10-05T06:36:29.983Z,98080.72
2022-10-05T06:39:24.903Z,98083.44
2022-10-05T06:42:09.011Z,98077.81
2022-10-05T06:44:59.828Z,98082.03
2022-10-05T06:47:56.105Z,98087.81
2022-10-05T06:50:40.743Z,98088.44
2022-10-05T06:53:40.841Z,97805.13
2022-10-05T06:56:17.268Z,98045.22
2022-10-05T06:59:02.571Z,98089.63
2022-10-05T07:01:54.253Z,98008.88
2022-10-05T07:04:45.654Z,98087.38
2022-10-05T07:07:23.259Z,98103.38
2022-10-05T07:10:07.407Z,98092.94
2022-10-05T07:12:43.945Z,98090.88
2022-10-05T07:15:40.204Z,98091.31
2022-10-05T07:18:12.822Z,98084.38
2022-10-05T07:21:05.842Z,97998.25
2022-10-05T07:23:57.591Z,97769.88
2022-10-05T07:26:39.124Z,98087.09
2022-10-05T07:29:34.711Z,97934.63
2022-10-05T07:32:22.180Z,98064.16
2022-10-05T07:35:00.800Z,98084.94
2022-10-05T07:37:57.411Z,98082.75
2022-10-05T07:40:33.196Z,98083.84
2022-10-05T07:43:15.249Z,98086.47
2022-10-05T07:45:44.634Z,98081.97
2022-10-05T07:48:45.948Z,98002.72
2022-10-05T07:51:29.952Z,98076.94
2022-10-05T07:54:15.613Z,98081.28
2022-10-05T07:56:49.615Z,98090.94
2022-10-05T07:59:36.664Z,97964.97
2022-10-05T08:02:17.725Z,98106.78
2022-10-05T08:04:57.678Z,98082.25
2022-10-05T08:09:53.898Z,98007.41
2022-10-05T08:12:37.572Z,98086.09
2022-10-05T08:15:26.451Z,98090.38
2022-10-05T08:18:00.517Z,98041.38
2022-10-05T08:20:54.313Z,98063.16
2022-10-05T08:23:36.085Z,98083.47
2022-10-05T08:26:48.155Z,98087.53
2022-10-05T08:29:33.890Z,98086.00
2022-10-05T08:32:12.363Z,98050.69
2022-10-05T08:34:55.725Z,98068.88
2022-10-05T08:37:27.641Z,97988.56
2022-10-05T08:40:22.627Z,98072.50
2022-10-05T08:43:08.740Z,98038.00
2022-10-05T08:45:54.355Z,97960.94
2022-10-05T08:48:44.158Z,98072.94
2022-10-05T08:51:31.954Z,98066.09
2022-10-05T08:53:58.644Z,98070.94
2022-10-05T08:56:51.551Z,98065.72
2022-10-05T08:59:40.332Z,97892.84
2022-10-05T09:02:23.681Z,98070.13
2022-10-05T09:05:18.209Z,98071.72
2022-10-05T09:08:04.642Z,98067.28
2022-10-05T09:10:49.819Z,98068.38
2022-10-05T09:13:54.283Z,98069.69
2022-10-05T09:16:38.837Z,98071.72
2022-10-05T09:19:23.744Z,98075.75
2022-10-05T09:21:53.349Z,98074.13
2022-10-05T09:24:35.480Z,98064.50
2022-10-05T09:27:16.115Z,98073.28
2022-10-05T09:30:05.381Z,98066.84
2022-10-05T09:32:41.075Z,98068.38
2022-10-05T09:35:45.139Z,98069.97
2022-10-05T09:38:23.365Z,98064.28
2022-10-05T09:41:27.483Z,98065.03
2022-10-05T09:44:12.758Z,98065.28
2022-10-05T09:46:45.199Z,98074.13
2022-10-05T09:49:39.807Z,98074.13
2022-10-05T09:52:21.555Z,97855.56
2022-10-05T09:55:05.546Z,98071.69
2022-10-05T09:57:53.164Z,98068.53
2022-10-05T10:00:24.208Z,98065.69
2022-10-05T10:03:20.960Z,97971.34
2022-10-05T10:06:10.505Z,98075.75
2022-10-05T10:09:14.209Z,98070.09
2022-10-05T10:12:11.535Z,98072.47
2022-10-05T10:14:49.534Z,98062.47
2022-10-05T10:17:16.032Z,98074.13
2022-10-05T10:19:57.749Z,98078.16
2022-10-05T10:22:52.290Z,98073.31
2022-10-05T10:25:34.853Z,98080.53
2022-10-05T10:28:13.708Z,98068.50
2022-10-05T10:30:58.599Z,98064.34
2022-10-05T10:33:44.817Z,98068.31
2022-10-05T10:36:22.522Z,98039.63
2022-10-05T10:39:16.813Z,97988.56
2022-10-05T10:42:31.673Z,98059.72
2022-10-05T10:45:16.784Z,98060.47
2022-10-05T10:47:57.028Z,98058.25
2022-10-05T10:50:24.027Z,98061.84
2022-10-05T10:53:27.852Z,98058.69
2022-10-05T10:56:13.319Z,97863.44
2022-10-05T10:59:12.129Z,98061.19
2022-10-05T11:02:03.052Z,98058.84
2022-10-05T11:04:56.123Z,98054.31
2022-10-05T11:07:40.770Z,98050.75
2022-10-05T11:10:26.113Z,98046.50
2022-10-05T11:13:14.531Z,98048.88
2022-10-05T11:16:12.529Z,98047.66
2022-10-05T11:19:05.200Z,98037.63
2022-10-05T11:21:56.709Z,98032.66
2022-10-05T11:24:40.072Z,98023.84
2022-10-05T11:30:25.737Z,98035.91
2022-10-05T11:33:11.260Z,98024.88
2022-10-05T11:35:46.788Z,98021.56
2022-10-05T11:38:54.225Z,98031.19
2022-10-05T11:41:32.947Z,98022.25
2022-10-05T11:44:20.678Z,98060.25
2022-10-05T11:47:24.386Z,97894.69
2022-10-05T11:50:17.198Z,98021.38
2022-10-05T11:53:06.217Z,97989.63
2022-10-05T11:56:00.450Z,98019.38
2022-10-05T11:58:33.385Z,98034.78
2022-10-05T12:01:34.705Z,97986.34
2022-10-05T12:04:52.562Z,98007.31
2022-10-05T12:07:44.599Z,97984.00
2022-10-05T12:10:34.269Z,97952.97
2022-10-05T12:13:01.502Z,98005.34
2022-10-05T12:15:48.167Z,98002.03
2022-10-05T12:18:23.712Z,97996.28
2022-10-05T12:20:54.263Z,97993.19
2022-10-05T12:23:24.953Z,97992.69
2022-10-05T12:26:00.317Z,97985.31
2022-10-05T12:28:49.886Z,97990.59
2022-10-05T12:31:27.593Z,97998.50
2022-10-05T12:34:00.356Z,97998.59
2022-10-05T12:37:02.544Z,97994.13
2022-10-05T12:39:48.704Z,98000.06
2022-10-05T12:42:42.043Z,98001.63
2022-10-05T12:45:30.586Z,98005.31
2022-10-05T12:48:12.255Z,98009.88
2022-10-05T12:50:46.497Z,97880.03
2022-10-05T12:53:41.125Z,98014.69
2022-10-05T12:56:07.682Z,98018.72
2022-10-05T12:58:54.444Z,97987.44
2022-10-05T13:01:50.821Z,97892.75
2022-10-05T13:04:24.261Z,98008.75
2022-10-05T13:07:21.318Z,98010.31
2022-10-05T13:09:55.840Z,97929.31
2022-10-05T13:12:48.053Z,97998.38
2022-10-05T13:15:26.599Z,98005.28
2022-10-05T13:18:24.103Z,98006.53
2022-10-05T13:21:04.538Z,98007.69
2022-10-05T13:23:40.957Z,97999.03
2022-10-05T13:26:26.667Z,97996.59
2022-10-05T13:29:04.588Z,97988.56
2022-10-05T13:31:49.637Z,97994.44
2022-10-05T13:34:34.150Z,97996.19
2022-10-05T13:37:07.035Z,98001.09
2022-10-05T13:39:52.085Z,97989.06
2022-10-05T13:42:31.189Z,97982.25
2022-10-05T13:45:03.495Z,97977.03
2022-10-05T13:47:39.648Z,97979.47
2022-10-05T13:50:17.444Z,97742.13
2022-10-05T13:52:54.589Z,97986.66
2022-10-05T13:55:39.968Z,97990.28
2022-10-05T13:58:28.471Z,97987.47
2022-10-05T14:01:08.495Z,97979.38
2022-10-05T14:03:38.165Z,97960.97
2022-10-05T14:06:14.015Z,97978.59
2022-10-05T14:08:51.628Z,97976.22
2022-10-05T14:11:26.807Z,97991.09
2022-10-05T14:14:03.379Z,97926.06
2022-10-05T14:16:33.079Z,97966.97
2022-10-05T14:19:05.645Z,98009.94
2022-10-05T14:21:43.353Z,97722.81
2022-10-05T14:24:43.794Z,98001.88
2022-10-05T14:27:33.837Z,97997.00
2022-10-05T14:30:09.533Z,97997.78
2022-10-05T14:33:03.284Z,98001.75
2022-10-05T14:35:37.373Z,97980.84
2022-10-05T14:38:26.367Z,97970.44
2022-10-05T14:41:20.433Z,98000.16
2022-10-05T14:44:05.630Z,97998.50
2022-10-05T14:46:34.926Z,97985.63
2022-10-05T14:49:21.217Z,97992.81
2022-10-05T14:51:49.456Z,97994.38
2022-10-05T14:54:25.305Z,98000.63
2022-10-05T14:57:18.359Z,97996.63
2022-10-05T14:59:51.717Z,97995.03
2022-10-05T15:02:45.315Z,97984.53
2022-10-05T15:05:19.158Z,97931.53
2022-10-05T15:07:49.890Z,98005.34
2022-10-05T15:10:19.890Z,98006.91
2022-10-05T15:12:48.434Z,98017.97
2022-10-05T15:15:37.190Z,98008.75
2022-10-05T15:18:16.761Z,98010.78
2022-10-05T15:21:03.597Z,98018.81
2022-10-05T15:23:48.911Z,97984.00
2022-10-05T15:26:52.180Z,98013.91
2022-10-05T15:29:26.136Z,98022.56
2022-10-05T15:32:23.971Z,98022.56
2022-10-05T15:35:06.077Z,98019.78
2022-10-05T15:37:47.566Z,98044.22
2022-10-05T15:40:28.499Z,98029.78
2022-10-05T15:43:02.876Z,98044.19
2022-10-05T15:45:34.102Z,98041.72
2022-10-05T15:48:05.207Z,98039.31
2022-10-05T15:51:10.156Z,98038.81
2022-10-05T15:53:48.511Z,98041.97
2022-10-05T15:56:38.762Z,98044.63
2022-10-05T15:59:18.537Z,98039.28
2022-10-05T16:01:55.708Z,98050.41
2022-10-05T16:04:51.860Z,98053.97
2022-10-05T16:08:01.368Z,98056.22
2022-10-05T16:10:33.870Z,98059.34
2022-10-05T16:13:20.350Z,98061.59
2022-10-05T16:16:34.463Z,98061.81
2022-10-05T16:19:30.759Z,98065.03
2022-10-05T16:22:15.281Z,98068.72
2022-10-05T16:25:30.676Z,98080.34
2022-10-05T16:28:09.075Z,98089.03
2022-10-05T16:31:06.730Z,98092.16
2022-10-05T16:34:00.933Z,98094.84
2022-10-05T16:36:37.623Z,98099.09
2022-10-05T16:39:13.280Z,98017.16
2022-10-05T16:41:56.519Z,98102.06
2022-10-05T16:45:10.733Z,98107.63
2022-10-05T16:47:55.349Z,98113.81
2022-10-05T16:50:27.581Z,98094.13
2022-10-05T16:53:04.870Z,98109.72
2022-10-05T16:55:42.876Z,98127.19
2022-10-05T16:58:38.919Z,98118.25
2022-10-05T17:01:14.530Z,98127.88
2022-10-05T17:04:03.290Z,98122.84
2022-10-05T17:06:51.245Z,98127.16
2022-10-05T17:09:39.721Z,98041.09
2022-10-05T17:12:15.643Z,98135.25
2022-10-05T17:14:43.091Z,98139.91
2022-10-05T17:17:28.372Z,98136.34
2022-10-05T17:20:23.672Z,98143.91
2022-10-05T17:23:29.257Z,98152.56
2022-10-05T17:26:18.624Z,98100.91
2022-10-05T17:28:51.145Z,98149.66
2022-10-05T17:31:22.413Z,98110.16
2022-10-05T17:34:18.100Z,98147.88
2022-10-05T17:36:49.900Z,98158.50
2022-10-05T17:39:19.770Z,98163.34
2022-10-05T17:41:49.005Z,98160.84
2022-10-05T17:44:21.694Z,98089.63
2022-10-05T17:46:59.597Z,98156.44
2022-10-05T17:49:38.715Z,98168.19
2022-10-05T17:53:01.901Z,98171.72
2022-10-05T17:55:31.729Z,98177.69
2022-10-05T17:58:22.182Z,98181.78
2022-10-05T18:00:58.259Z,98177.34
2022-10-05T18:03:45.151Z,98180.31
2022-10-05T18:06:24.795Z,98175.56
2022-10-05T18:09:16.967Z,98177.88
2022-10-05T18:12:02.485Z,98155.53
2022-10-05T18:14:49.202Z,98181.66
2022-10-05T18:17:36.862Z,98186.13
2022-10-05T18:20:26.478Z,98183.69
2022-10-05T18:23:14.500Z,98182.63
2022-10-05T18:26:06.155Z,98188.00
2022-10-05T18:29:13.642Z,98117.28
2022-10-05T18:31:54.666Z,98183.88
2022-10-05T18:34:32.804Z,98183.88
2022-10-05T18:37:08.420Z,98191.53
2022-10-05T18:40:12.933Z,98194.34
2022-10-05T18:42:48.504Z,98185.38
2022-10-05T18:45:33.685Z,98186.75
2022-10-05T18:48:18.571Z,98202.03
2022-10-05T18:51:08.481Z,98195.75
2022-10-05T18:53:57.124Z,98192.31
2022-10-05T18:56:43.483Z,98198.34
2022-10-05T18:59:54.773Z,98208.22
2022-10-05T19:02:30.409Z,98204.25
2022-10-05T19:05:11.574Z,98211.06
2022-10-05T19:08:07.987Z,98216.88
2022-10-05T19:10:45.226Z,98221.72
2022-10-05T19:13:20.589Z,98225.78
2022-10-05T19:15:56.226Z,98233.28
2022-10-05T19:18:41.842Z,98243.13
2022-10-05T19:21:08.418Z,98234.88
2022-10-05T19:23:56.423Z,98237.88
2022-10-05T19:26:41.446Z,98242.50
2022-10-05T19:29:19.931Z,98191.84
2022-10-05T19:32:04.469Z,98235.34
2022-10-05T19:35:00.669Z,98217.72
2022-10-05T19:37:51.974Z,98243.41
2022-10-05T19:40:24.463Z,98247.31
2022-10-05T19:42:56.743Z,98240.91
2022-10-05T19:45:26.716Z,98225.91
2022-10-05T19:48:05.905Z,98236.59
2022-10-05T19:50:35.419Z,98202.56
2022-10-05T19:53:08.250Z,98238.34
2022-10-05T19:55:39.621Z,98217.88
2022-10-05T19:58:16.886Z,98174.63
2022-10-05T20:00:45.826Z,98238.19
2022-10-05T20:03:23.468Z,98236.44
2022-10-05T20:05:54.081Z,98241.16
2022-10-05T20:08:22.695Z,98239.56
2022-10-05T20:11:21.159Z,98244.41
2022-10-05T20:13:47.718Z,98238.41
2022-10-05T20:16:37.609Z,98238.88
2022-10-05T20:19:50.934Z,98240.25
2022-10-05T20:22:46.490Z,98238.84
2022-10-05T20:25:19.211Z,98242.00
2022-10-05T20:27:51.829Z,98221.75
2022-10-05T20:30:20.807Z,98249.84
2022-10-05T20:32:49.080Z,98247.56
2022-10-05T20:35:18.870Z,98247.03
2022-10-05T20:37:45.438Z,98103.97
2022-10-05T20:40:12.150Z,98253.38
2022-10-05T20:42:38.786Z,98250.94
2022-10-05T20:45:06.461Z,98264.97
2022-10-05T20:47:33.731Z,98260.53
2022-10-05T20:50:01.169Z,98174.97
2022-10-05T20:52:27.822Z,98261.88
2022-10-05T20:54:59.359Z,98282.69
2022-10-05T20:57:26.657Z,98268.44
2022-10-05T20:59:53.705Z,98266.69
2022-10-05T21:02:20.605Z,98262.78
2022-10-05T21:04:47.837Z,98258.44
2022-10-05T21:07:21.125Z,98244.31
2022-10-05T21:09:47.790Z,98248.19
2022-10-05T21:12:14.588Z,98247.06
2022-10-05T21:14:41.252Z,98221.75
2022-10-05T21:17:08.136Z,98263.19
2022-10-05T21:19:44.080Z,98257.00
2022-10-05T21:22:10.690Z,98251.72
2022-10-05T21:24:38.839Z,98255.00
2022-10-05T21:27:06.048Z,98254.31
2022-10-05T21:29:34.299Z,98248.44
2022-10-05T21:32:01.003Z,98253.63
2022-10-05T21:34:28.698Z,98251.72
2022-10-05T21:36:55.300Z,98261.13
2022-10-05T21:39:22.108Z,98269.88
2022-10-05T21:41:49.752Z,98245.53
2022-10-05T21:44:16.708Z,98270.84
2022-10-05T21:46:43.470Z,98275.09
2022-10-05T21:49:10.201Z,98266.31
2022-10-05T21:51:37.426Z,98260.47
2022-10-05T21:54:10.775Z,98257.19
2022-10-05T21:56:38.699Z,98270.84
2022-10-05T21:59:08.727Z,98227.50
2022-10-05T22:01:36.054Z,98268.41
2022-10-05T22:04:03.935Z,98208.97
2022-10-05T22:06:31.454Z,98257.16
2022-10-05T22:08:58.315Z,98250.84
2022-10-05T22:11:25.433Z,98256.56
2022-10-05T22:13:53.115Z,98253.28
2022-10-05T22:16:23.332Z,98243.22
2022-10-05T22:18:50.127Z,98219.22
2022-10-05T22:21:17.341Z,98253.94
2022-10-05T22:23:45.667Z,98177.00
2022-10-05T22:26:16.507Z,98247.78
2022-10-05T22:28:44.423Z,98242.91
2022-10-05T22:31:12.837Z,98211.75
2022-10-05T22:33:40.887Z,98234.47
2022-10-05T22:36:08.789Z,98247.06
2022-10-05T22:38:35.481Z,98218.06
2022-10-05T22:41:02.319Z,98233.78
2022-10-05T22:43:29.062Z,98174.75
2022-10-05T22:45:56.268Z,98237.38
2022-10-05T22:48:23.270Z,98239.03
2022-10-05T22:50:49.860Z,98203.97
2022-10-05T22:53:16.535Z,98242.56
2022-10-05T22:55:43.077Z,98249.41
2022-10-05T22:58:09.742Z,98170.88
2022-10-05T23:00:56.849Z,98241.00
2022-10-05T23:03:23.347Z,98245.22
2022-10-05T23:05:56.631Z,98240.66
2022-10-05T23:08:23.175Z,98236.44
2022-10-05T23:10:49.839Z,98265.34
2022-10-05T23:13:16.405Z,98191.81
2022-10-05T23:15:42.974Z,98252.03
2022-10-05T23:18:09.563Z,98230.28
2022-10-05T23:20:37.066Z,98205.25
2022-10-05T23:23:03.643Z,98252.00
2022-10-05T23:25:30.204Z,98256.91
2022-10-05T23:27:56.822Z,98207.19
2022-10-05T23:30:23.496Z,98245.50
2022-10-05T23:32:50.038Z,98097.69
2022-10-05T23:35:16.639Z,98212.53
2022-10-05T23:37:44.475Z,98250.53
2022-10-05T23:40:13.470Z,98240.97
2022-10-05T23:42:41.054Z,98234.47
2022-10-05T23:45:11.844Z,98240.66
2022-10-05T23:47:39.919Z,98242.75
2022-10-05T23:50:08.266Z,98165.34
2022-10-05T23:52:35.732Z,98242.13
2022-10-05T23:55:03.679Z,98231.56
2022-10-05T23:57:30.990Z,98227.81
2022-10-05T23:59:57.596Z,98212.88
